Time;durP1;ratioP1;P1;durP2;ratioP2;P2;SDS_P1;SDS_P2;PMS_P1;PMS_P2;Temp;Humidity;BMP_temperature;BMP_pressure;BME280_temperature;BME280_humidity;BME280_pressure;Samples;Min_cycle;Max_cycle;Signal;HPM_P1;HPM_P2
2022/03/28 00:01:58;;;;;;;0.35;0.20;;;;;;;;;;4214366;28;20052;-36
2022/03/28 00:03:59;;;;;;;0.75;0.20;;;;;;;;;;4214856;28;20050;-36
2022/03/28 00:06:00;;;;;;;0.17;0.08;;;;;;;;;;4215024;28;20084;-36
2022/03/28 00:08:00;;;;;;;1.27;0.30;;;;;;;;;;4214688;28;20043;-36
2022/03/28 00:10:02;;;;;;;0.30;0.20;;;;;;;;;;4214869;28;20098;-36
2022/03/28 00:12:03;;;;;;;0.13;0.10;;;;;;;;;;4214638;28;20066;-36
2022/03/28 00:14:04;;;;;;;0.30;0.10;;;;;;;;;;4214923;28;20044;-36
2022/03/28 00:16:06;;;;;;;0.50;0.20;;;;;;;;;;4213543;28;20059;-36
2022/03/28 00:18:08;;;;;;;0.95;0.20;;;;;;;;;;4214042;28;20361;-36
2022/03/28 00:20:11;;;;;;;0.22;0.20;;;;;;;;;;4215028;28;20093;-36
2022/03/28 00:22:12;;;;;;;0.13;0.13;;;;;;;;;;4214526;28;20089;-36
2022/03/28 00:24:13;;;;;;;0.10;0.10;;;;;;;;;;4214539;28;20071;-36
2022/03/28 00:26:13;;;;;;;0.70;0.10;;;;;;;;;;4213244;28;20051;-36
2022/03/28 00:28:15;;;;;;;0.10;0.10;;;;;;;;;;4214882;28;20052;-36
2022/03/28 00:30:16;;;;;;;0.10;0.10;;;;;;;;;;4213061;28;20086;-36
2022/03/28 00:32:18;;;;;;;0.10;0.10;;;;;;;;;;4212725;28;20063;-36
2022/03/28 00:34:23;;;;;;;0.10;0.10;;;;;;;;;;4214473;28;20407;-36
2022/03/28 00:36:24;;;;;;;0.40;0.20;;;;;;;;;;4214555;28;20051;-36
2022/03/28 00:38:25;;;;;;;0.10;0.10;;;;;;;;;;4214311;28;20534;-36
2022/03/28 00:40:28;;;;;;;0.20;0.10;;;;;;;;;;4214505;28;20079;-36
2022/03/28 00:42:29;;;;;;;0.00;0.00;;;;;;;;;;4214366;28;20043;-36
2022/03/28 00:44:31;;;;;;;0.10;0.10;;;;;;;;;;4214505;28;20109;-36
2022/03/28 00:46:33;;;;;;;0.93;0.17;;;;;;;;;;4214554;28;20074;-36
2022/03/28 00:48:33;;;;;;;0.15;0.10;;;;;;;;;;4212691;28;20098;-36
2022/03/28 00:50:35;;;;;;;0.15;0.10;;;;;;;;;;4214250;28;20047;-36
2022/03/28 00:52:39;;;;;;;0.10;0.10;;;;;;;;;;4214237;28;20059;-36
2022/03/28 00:54:40;;;;;;;0.20;0.15;;;;;;;;;;4214065;28;20483;-36
2022/03/28 00:56:42;;;;;;;0.10;0.10;;;;;;;;;;4214205;28;20253;-36
2022/03/28 00:58:43;;;;;;;0.30;0.10;;;;;;;;;;4213003;28;20445;-36
2022/03/28 01:00:44;;;;;;;0.20;0.10;;;;;;;;;;4213986;28;20065;-36
2022/03/28 01:02:46;;;;;;;0.10;0.10;;;;;;;;;;4213656;28;20055;-36
2022/03/28 01:04:47;;;;;;;0.15;0.10;;;;;;;;;;4213969;28;20052;-36
2022/03/28 01:06:48;;;;;;;0.10;0.10;;;;;;;;;;4213955;28;20139;-36
2022/03/28 01:08:49;;;;;;;0.20;0.20;;;;;;;;;;4213813;28;20091;-36
2022/03/28 01:10:52;;;;;;;0.30;0.13;;;;;;;;;;4213915;28;20056;-36
2022/03/28 01:12:53;;;;;;;0.45;0.13;;;;;;;;;;4213722;28;20510;-36
2022/03/28 01:14:55;;;;;;;0.10;0.10;;;;;;;;;;4213979;28;20093;-36
2022/03/28 01:19:16;;;;;;;0.13;0.10;;;;;;;;;;4214019;28;20516;-36
2022/03/28 01:21:17;;;;;;;0.45;0.20;;;;;;;;;;4213827;28;20144;-36
2022/03/28 01:23:18;;;;;;;0.22;0.17;;;;;;;;;;4213582;28;20044;-36
2022/03/28 01:25:21;;;;;;;0.30;0.10;;;;;;;;;;4214056;28;20089;-36
2022/03/28 01:27:23;;;;;;;0.47;0.20;;;;;;;;;;4213565;28;20043;-36
2022/03/28 01:29:24;;;;;;;0.47;0.25;;;;;;;;;;4213494;28;20105;-36
2022/03/28 01:31:25;;;;;;;0.10;0.10;;;;;;;;;;4213588;28;20509;-36
2022/03/28 01:33:26;;;;;;;0.55;0.22;;;;;;;;;;4213137;28;20097;-36
2022/03/28 01:35:31;;;;;;;0.35;0.20;;;;;;;;;;4213483;28;20098;-36
2022/03/28 01:37:33;;;;;;;0.20;0.20;;;;;;;;;;4213374;28;20113;-36
2022/03/28 01:39:34;;;;;;;0.30;0.30;;;;;;;;;;4213647;28;20094;-36
2022/03/28 01:41:35;;;;;;;0.45;0.20;;;;;;;;;;4213602;28;20048;-36
2022/03/28 01:43:36;;;;;;;0.25;0.20;;;;;;;;;;4213546;28;20109;-36
2022/03/28 01:45:37;;;;;;;0.20;0.10;;;;;;;;;;4213170;28;20040;-36
2022/03/28 01:47:40;;;;;;;0.50;0.20;;;;;;;;;;4212920;28;20524;-36
2022/03/28 01:49:41;;;;;;;0.20;0.20;;;;;;;;;;4213450;28;20055;-36
2022/03/28 01:51:42;;;;;;;0.10;0.10;;;;;;;;;;4213279;28;20070;-36
2022/03/28 01:53:43;;;;;;;0.30;0.20;;;;;;;;;;4212981;28;20058;-36
2022/03/28 01:55:44;;;;;;;1.77;0.22;;;;;;;;;;4213205;28;20539;-36
2022/03/28 01:57:45;;;;;;;0.40;0.20;;;;;;;;;;4213112;28;20052;-36
2022/03/28 01:59:47;;;;;;;0.65;0.22;;;;;;;;;;4213090;28;20572;-36
2022/03/28 02:01:48;;;;;;;0.20;0.20;;;;;;;;;;4212889;28;20044;-36
2022/03/28 02:03:49;;;;;;;0.35;0.28;;;;;;;;;;4212797;28;20048;-36
2022/03/28 02:05:49;;;;;;;0.30;0.20;;;;;;;;;;4213183;28;20158;-36
2022/03/28 02:07:50;;;;;;;0.10;0.10;;;;;;;;;;4212885;28;20048;-36
2022/03/28 02:09:51;;;;;;;0.40;0.13;;;;;;;;;;4212088;28;20495;-36
2022/03/28 02:11:52;;;;;;;0.55;0.20;;;;;;;;;;4212582;28;20055;-36
2022/03/28 02:13:53;;;;;;;0.38;0.10;;;;;;;;;;4212946;28;20097;-36
2022/03/28 02:15:54;;;;;;;0.75;0.20;;;;;;;;;;4211554;28;20051;-36
2022/03/28 02:17:55;;;;;;;0.10;0.00;;;;;;;;;;4212315;28;20098;-36
2022/03/28 02:19:56;;;;;;;0.30;0.10;;;;;;;;;;4212897;28;20101;-36
2022/03/28 02:21:57;;;;;;;0.22;0.20;;;;;;;;;;4212907;28;20059;-36
2022/03/28 02:23:59;;;;;;;0.10;0.10;;;;;;;;;;4211743;28;20463;-36
2022/03/28 02:26:02;;;;;;;0.45;0.22;;;;;;;;;;4212681;28;20048;-36
2022/03/28 02:28:04;;;;;;;0.20;0.20;;;;;;;;;;4212632;28;20106;-36
2022/03/28 02:30:06;;;;;;;0.63;0.28;;;;;;;;;;4212998;28;20101;-36
2022/03/28 02:32:07;;;;;;;0.20;0.20;;;;;;;;;;4212398;28;20092;-36
2022/03/28 02:34:08;;;;;;;0.10;0.10;;;;;;;;;;4212946;28;20148;-36
2022/03/28 02:36:10;;;;;;;0.20;0.20;;;;;;;;;;4212850;28;20102;-36
2022/03/28 02:38:11;;;;;;;0.20;0.20;;;;;;;;;;4212452;28;20105;-36
2022/03/28 02:40:12;;;;;;;0.52;0.40;;;;;;;;;;4211371;28;20048;-36
2022/03/28 02:42:14;;;;;;;0.50;0.20;;;;;;;;;;4211041;28;20081;-36
2022/03/28 02:44:15;;;;;;;0.20;0.20;;;;;;;;;;4212905;28;20051;-36
2022/03/28 02:46:16;;;;;;;0.57;0.30;;;;;;;;;;4212846;28;20076;-36
2022/03/28 02:48:17;;;;;;;0.10;0.10;;;;;;;;;;4212125;28;20433;-36
2022/03/28 02:50:18;;;;;;;0.52;0.20;;;;;;;;;;4212942;28;20288;-36
2022/03/28 02:52:18;;;;;;;0.22;0.20;;;;;;;;;;4212427;28;20181;-36
2022/03/28 02:54:19;;;;;;;0.10;0.10;;;;;;;;;;4212825;28;20105;-36
2022/03/28 02:56:20;;;;;;;0.20;0.20;;;;;;;;;;4212534;28;20048;-36
2022/03/28 02:58:22;;;;;;;0.10;0.10;;;;;;;;;;4212369;28;20048;-36
2022/03/28 03:00:23;;;;;;;0.30;0.20;;;;;;;;;;4212458;28;20056;-36
2022/03/28 03:02:23;;;;;;;0.63;0.20;;;;;;;;;;4210739;28;20044;-36
2022/03/28 03:04:26;;;;;;;0.30;0.30;;;;;;;;;;4212472;28;20051;-36
2022/03/28 03:06:26;;;;;;;0.95;0.30;;;;;;;;;;4212680;28;20102;-36
2022/03/28 03:08:27;;;;;;;1.38;0.28;;;;;;;;;;4212299;28;20120;-36
2022/03/28 03:10:28;;;;;;;0.57;0.22;;;;;;;;;;4212201;28;20063;-36
2022/03/28 03:12:29;;;;;;;0.40;0.30;;;;;;;;;;4212307;28;20084;-36
2022/03/28 03:14:30;;;;;;;0.25;0.10;;;;;;;;;;4212677;28;20059;-36
2022/03/28 03:16:31;;;;;;;0.28;0.20;;;;;;;;;;4212614;28;20044;-36
2022/03/28 03:18:32;;;;;;;0.77;0.30;;;;;;;;;;4211880;28;20117;-35
2022/03/28 03:20:33;;;;;;;0.60;0.30;;;;;;;;;;4212657;28;20044;-35
2022/03/28 03:22:34;;;;;;;1.27;0.20;;;;;;;;;;4215797;28;20043;-35
2022/03/28 03:24:35;;;;;;;0.40;0.20;;;;;;;;;;4215380;28;20117;-35
2022/03/28 03:26:37;;;;;;;0.50;0.25;;;;;;;;;;4215549;28;20087;-35
2022/03/28 03:28:38;;;;;;;0.47;0.25;;;;;;;;;;4215455;28;20556;-36
2022/03/28 03:30:39;;;;;;;0.68;0.30;;;;;;;;;;4215710;28;20087;-35
2022/03/28 03:32:40;;;;;;;0.85;0.20;;;;;;;;;;4214962;28;20044;-35
2022/03/28 03:34:41;;;;;;;0.20;0.10;;;;;;;;;;4215487;28;20055;-35
2022/03/28 03:36:42;;;;;;;0.10;0.10;;;;;;;;;;4215726;28;20048;-36
2022/03/28 03:38:43;;;;;;;0.43;0.20;;;;;;;;;;4215034;28;20135;-35
2022/03/28 03:40:44;;;;;;;0.65;0.32;;;;;;;;;;4215635;28;20097;-35
2022/03/28 03:42:45;;;;;;;0.30;0.20;;;;;;;;;;4215177;28;20058;-35
2022/03/28 03:44:46;;;;;;;0.20;0.20;;;;;;;;;;4215472;28;20091;-35
2022/03/28 03:46:47;;;;;;;0.98;0.30;;;;;;;;;;4213768;28;20097;-35
2022/03/28 03:48:48;;;;;;;0.50;0.20;;;;;;;;;;4214889;28;20097;-35
2022/03/28 03:50:49;;;;;;;0.40;0.20;;;;;;;;;;4215418;28;20105;-36
2022/03/28 03:52:51;;;;;;;1.20;0.20;;;;;;;;;;4214996;28;20491;-35
2022/03/28 03:54:52;;;;;;;0.40;0.20;;;;;;;;;;4215282;28;20089;-36
2022/03/28 03:56:53;;;;;;;0.38;0.30;;;;;;;;;;4215122;28;20091;-35
2022/03/28 03:58:55;;;;;;;1.50;0.30;;;;;;;;;;4215016;28;20429;-36
2022/03/28 04:00:56;;;;;;;0.70;0.30;;;;;;;;;;4214877;28;20070;-35
2022/03/28 04:02:57;;;;;;;0.22;0.20;;;;;;;;;;4214471;28;20080;-36
2022/03/28 04:04:58;;;;;;;0.28;0.28;;;;;;;;;;4213625;28;20093;-36
2022/03/28 04:06:59;;;;;;;0.57;0.28;;;;;;;;;;4213628;28;20055;-35
2022/03/28 04:09:00;;;;;;;0.43;0.30;;;;;;;;;;4214942;28;20052;-36
2022/03/28 04:11:01;;;;;;;0.52;0.32;;;;;;;;;;4214720;28;20474;-35
2022/03/28 04:13:02;;;;;;;0.40;0.40;;;;;;;;;;4214774;28;20056;-36
2022/03/28 04:15:03;;;;;;;2.72;0.40;;;;;;;;;;4214816;28;20048;-38
2022/03/28 04:17:05;;;;;;;0.50;0.40;;;;;;;;;;4214380;28;20507;-35
2022/03/28 04:19:06;;;;;;;1.45;0.47;;;;;;;;;;4214795;28;20052;-36
2022/03/28 04:21:07;;;;;;;0.68;0.30;;;;;;;;;;4214994;28;20380;-35
2022/03/28 04:23:08;;;;;;;1.27;0.43;;;;;;;;;;4214677;28;20105;-35
2022/03/28 04:25:09;;;;;;;0.40;0.30;;;;;;;;;;4214680;28;20117;-35
2022/03/28 04:27:10;;;;;;;0.30;0.30;;;;;;;;;;4214677;28;20044;-36
2022/03/28 04:29:11;;;;;;;0.80;0.32;;;;;;;;;;4214589;28;20048;-36
2022/03/28 04:31:12;;;;;;;0.50;0.50;;;;;;;;;;4203904;28;20044;-36
2022/03/28 04:33:13;;;;;;;0.30;0.30;;;;;;;;;;4211660;28;20055;-36
2022/03/28 04:35:14;;;;;;;0.60;0.50;;;;;;;;;;4214470;28;20384;-36
2022/03/28 04:37:16;;;;;;;0.40;0.40;;;;;;;;;;4214139;28;20483;-36
2022/03/28 04:39:18;;;;;;;1.13;0.47;;;;;;;;;;4214406;28;20461;-35
2022/03/28 04:41:19;;;;;;;0.57;0.28;;;;;;;;;;4214622;28;20048;-36
2022/03/28 04:43:21;;;;;;;0.70;0.50;;;;;;;;;;4214365;28;20051;-36
2022/03/28 04:45:22;;;;;;;0.43;0.40;;;;;;;;;;4213220;28;20109;-37
2022/03/28 04:47:23;;;;;;;0.57;0.32;;;;;;;;;;4213974;28;20044;-36
2022/03/28 04:49:24;;;;;;;0.55;0.30;;;;;;;;;;4214543;28;20044;-36
2022/03/28 04:51:25;;;;;;;0.88;0.47;;;;;;;;;;4214758;28;20134;-36
2022/03/28 04:53:26;;;;;;;0.68;0.43;;;;;;;;;;4214194;28;20048;-36
2022/03/28 04:55:27;;;;;;;1.50;0.60;;;;;;;;;;4214068;28;20142;-35
2022/03/28 04:57:28;;;;;;;0.45;0.45;;;;;;;;;;4214106;28;20046;-36
2022/03/28 04:59:29;;;;;;;0.90;0.55;;;;;;;;;;4212746;28;20097;-35
2022/03/28 05:01:30;;;;;;;1.50;0.63;;;;;;;;;;4198434;28;20048;-35
2022/03/28 05:03:31;;;;;;;1.27;0.63;;;;;;;;;;4195700;28;20064;-36
2022/03/28 05:05:32;;;;;;;0.60;0.50;;;;;;;;;;4211897;28;20446;-35
2022/03/28 05:07:35;;;;;;;1.42;0.43;;;;;;;;;;4211992;28;20051;-35
2022/03/28 05:09:35;;;;;;;3.17;0.50;;;;;;;;;;4211865;28;20097;-35
2022/03/28 05:11:36;;;;;;;0.90;0.43;;;;;;;;;;4211804;28;20658;-35
2022/03/28 05:13:37;;;;;;;0.90;0.35;;;;;;;;;;4211524;28;20503;-36
2022/03/28 05:15:38;;;;;;;1.92;0.60;;;;;;;;;;4210445;28;20490;-36
2022/03/28 05:17:40;;;;;;;0.85;0.50;;;;;;;;;;4211445;28;20093;-35
2022/03/28 05:19:42;;;;;;;1.15;0.55;;;;;;;;;;4211571;28;20052;-35
2022/03/28 05:21:43;;;;;;;1.42;0.60;;;;;;;;;;4205036;28;20044;-36
2022/03/28 05:23:46;;;;;;;1.85;0.47;;;;;;;;;;4200859;28;20411;-35
2022/03/28 05:25:46;;;;;;;1.15;0.68;;;;;;;;;;4193805;28;20514;-35
2022/03/28 05:27:47;;;;;;;0.70;0.50;;;;;;;;;;4202132;28;20056;-35
2022/03/28 05:29:49;;;;;;;1.90;0.65;;;;;;;;;;4205359;28;20089;-36
2022/03/28 05:31:50;;;;;;;1.00;0.60;;;;;;;;;;4206046;28;20056;-35
2022/03/28 05:33:50;;;;;;;1.15;0.63;;;;;;;;;;4207735;28;20479;-35
2022/03/28 05:35:52;;;;;;;2.40;0.80;;;;;;;;;;4206833;28;20544;-35
2022/03/28 05:37:53;;;;;;;0.70;0.50;;;;;;;;;;4206283;28;20094;-35
2022/03/28 05:39:54;;;;;;;1.38;0.70;;;;;;;;;;4203709;28;20078;-35
2022/03/28 05:41:55;;;;;;;0.60;0.60;;;;;;;;;;4199296;28;20496;-35
2022/03/28 05:43:57;;;;;;;1.70;0.70;;;;;;;;;;4203985;28;20468;-35
2022/03/28 05:45:58;;;;;;;1.65;0.70;;;;;;;;;;4201367;28;20090;-35
2022/03/28 05:48:00;;;;;;;6.07;0.75;;;;;;;;;;4202033;28;20056;-35
2022/03/28 05:50:00;;;;;;;1.63;0.93;;;;;;;;;;4198922;28;20121;-34
2022/03/28 05:52:02;;;;;;;1.30;0.52;;;;;;;;;;4199637;28;20055;-35
2022/03/28 05:54:03;;;;;;;0.70;0.60;;;;;;;;;;4202123;28;20554;-35
2022/03/28 05:56:04;;;;;;;3.13;0.77;;;;;;;;;;4195664;28;20075;-38
2022/03/28 05:58:06;;;;;;;2.85;0.88;;;;;;;;;;4197579;28;20465;-37
2022/03/28 06:00:09;;;;;;;0.75;0.55;;;;;;;;;;4202248;28;21917;-37
2022/03/28 06:02:16;;;;;;;2.47;1.03;;;;;;;;;;4195413;28;20126;-37
2022/03/28 06:04:18;;;;;;;2.55;0.60;;;;;;;;;;4197895;28;20461;-37
2022/03/28 06:06:18;;;;;;;1.67;0.75;;;;;;;;;;4199123;28;20480;-37
2022/03/28 06:08:19;;;;;;;3.08;0.88;;;;;;;;;;4198818;28;20499;-37
2022/03/28 06:10:20;;;;;;;1.92;0.93;;;;;;;;;;4199948;28;20079;-36
2022/03/28 06:12:21;;;;;;;2.55;0.60;;;;;;;;;;4195451;28;20056;-35
2022/03/28 06:14:22;;;;;;;2.28;0.90;;;;;;;;;;4190642;28;20060;-35
2022/03/28 06:16:24;;;;;;;1.25;0.60;;;;;;;;;;4191345;28;20052;-34
2022/03/28 06:18:25;;;;;;;1.00;0.63;;;;;;;;;;4194285;28;20126;-34
2022/03/28 06:20:27;;;;;;;3.90;0.80;;;;;;;;;;4184568;28;20077;-34
2022/03/28 06:22:28;;;;;;;3.40;0.55;;;;;;;;;;4188296;28;20750;-34
2022/03/28 06:24:29;;;;;;;0.60;0.60;;;;;;;;;;4188712;28;20047;-34
2022/03/28 06:26:30;;;;;;;1.25;0.60;;;;;;;;;;4186575;28;20113;-34
2022/03/28 06:28:31;;;;;;;0.68;0.60;;;;;;;;;;4190853;28;20468;-34
2022/03/28 06:30:32;;;;;;;2.45;0.80;;;;;;;;;;4187131;28;20052;-34
2022/03/28 06:32:33;;;;;;;3.13;0.70;;;;;;;;;;4189357;28;20714;-34
2022/03/28 06:34:35;;;;;;;1.48;0.50;;;;;;;;;;4193490;28;20584;-34
2022/03/28 06:36:36;;;;;;;1.83;0.90;;;;;;;;;;4188367;28;20592;-34
2022/03/28 06:38:37;;;;;;;1.00;0.60;;;;;;;;;;4190990;28;20053;-34
2022/03/28 06:40:38;;;;;;;2.58;0.60;;;;;;;;;;4189698;28;20048;-34
2022/03/28 06:42:40;;;;;;;1.58;0.73;;;;;;;;;;4194231;28;20052;-34
2022/03/28 06:44:41;;;;;;;0.80;0.60;;;;;;;;;;4190133;28;20048;-34
2022/03/28 06:46:44;;;;;;;1.05;0.70;;;;;;;;;;4186525;28;20059;-35
2022/03/28 06:48:47;;;;;;;0.98;0.60;;;;;;;;;;4189494;28;20552;-34
2022/03/28 06:50:48;;;;;;;0.93;0.65;;;;;;;;;;4189944;28;20199;-34
2022/03/28 06:52:49;;;;;;;1.63;0.80;;;;;;;;;;4193549;28;20145;-34
2022/03/28 06:54:50;;;;;;;0.73;0.50;;;;;;;;;;4190955;28;20048;-34
2022/03/28 06:56:51;;;;;;;1.73;0.80;;;;;;;;;;4191610;28;20058;-35
2022/03/28 06:58:53;;;;;;;1.70;0.80;;;;;;;;;;4199772;28;20427;-34
2022/03/28 07:00:54;;;;;;;2.15;0.70;;;;;;;;;;4183369;28;20049;-34
2022/03/28 07:02:56;;;;;;;0.75;0.70;;;;;;;;;;4185481;28;20189;-34
2022/03/28 07:04:57;;;;;;;2.60;1.00;;;;;;;;;;4180462;28;20525;-34
2022/03/28 07:06:58;;;;;;;0.95;0.60;;;;;;;;;;4182326;28;20094;-34
2022/03/28 07:09:01;;;;;;;3.45;0.80;;;;;;;;;;4187127;28;20052;-34
2022/03/28 07:11:02;;;;;;;1.85;1.13;;;;;;;;;;4189694;28;20497;-34
2022/03/28 07:13:04;;;;;;;1.10;0.80;;;;;;;;;;4187410;28;20141;-34
2022/03/28 07:15:06;;;;;;;0.68;0.65;;;;;;;;;;4189955;28;20541;-35
2022/03/28 07:17:07;;;;;;;1.88;1.00;;;;;;;;;;4190678;28;20518;-34
2022/03/28 07:19:08;;;;;;;2.45;0.60;;;;;;;;;;4190874;28;20059;-34
2022/03/28 07:21:09;;;;;;;2.03;0.88;;;;;;;;;;4193567;28;20491;-34
2022/03/28 07:23:12;;;;;;;1.00;0.70;;;;;;;;;;4188328;28;20044;-34
2022/03/28 07:25:14;;;;;;;1.63;0.80;;;;;;;;;;4193220;28;20168;-34
2022/03/28 07:27:16;;;;;;;1.17;0.70;;;;;;;;;;4187059;28;20807;-34
2022/03/28 07:29:20;;;;;;;2.05;0.80;;;;;;;;;;4191045;28;20480;-34
2022/03/28 07:31:21;;;;;;;3.33;0.90;;;;;;;;;;4191872;28;20048;-34
2022/03/28 07:33:22;;;;;;;1.30;1.00;;;;;;;;;;4191750;28;20056;-34
2022/03/28 07:35:23;;;;;;;1.27;0.90;;;;;;;;;;4186072;28;20141;-35
2022/03/28 07:37:24;;;;;;;4.80;0.95;;;;;;;;;;4197132;28;20060;-34
2022/03/28 07:39:26;;;;;;;1.40;0.90;;;;;;;;;;4191547;28;20056;-34
2022/03/28 07:41:27;;;;;;;0.90;0.80;;;;;;;;;;4190617;28;20052;-34
2022/03/28 07:43:27;;;;;;;1.55;0.80;;;;;;;;;;4194863;28;20135;-34
2022/03/28 07:45:29;;;;;;;2.15;0.80;;;;;;;;;;4191452;28;20129;-35
2022/03/28 07:47:30;;;;;;;3.17;0.95;;;;;;;;;;4183847;28;20094;-35
2022/03/28 07:49:31;;;;;;;2.38;0.77;;;;;;;;;;4185771;28;20332;-35
2022/03/28 07:51:33;;;;;;;1.92;0.90;;;;;;;;;;4190503;28;20151;-35
2022/03/28 07:53:36;;;;;;;0.90;0.75;;;;;;;;;;4187689;28;20081;-34
2022/03/28 07:55:39;;;;;;;3.83;1.10;;;;;;;;;;4185402;28;21569;-34
2022/03/28 07:57:40;;;;;;;0.85;0.63;;;;;;;;;;4197700;28;20122;-34
2022/03/28 07:59:42;;;;;;;2.08;1.10;;;;;;;;;;4187462;28;20059;-34
2022/03/28 08:01:43;;;;;;;1.25;1.00;;;;;;;;;;4178571;28;20078;-35
2022/03/28 08:03:44;;;;;;;1.58;0.85;;;;;;;;;;4179101;28;20044;-34
2022/03/28 08:05:45;;;;;;;1.70;0.85;;;;;;;;;;4177980;28;20079;-34
2022/03/28 08:07:47;;;;;;;1.20;0.90;;;;;;;;;;4186788;28;20048;-34
2022/03/28 08:09:49;;;;;;;5.07;1.52;;;;;;;;;;4189430;28;20060;-34
2022/03/28 08:11:50;;;;;;;1.50;0.90;;;;;;;;;;4187781;28;20048;-35
2022/03/28 08:13:51;;;;;;;3.67;1.20;;;;;;;;;;4187297;28;20453;-35
2022/03/28 08:15:54;;;;;;;1.50;0.95;;;;;;;;;;4189267;28;20044;-35
2022/03/28 08:17:57;;;;;;;1.35;0.85;;;;;;;;;;4189312;28;20575;-35
2022/03/28 08:19:58;;;;;;;1.23;0.98;;;;;;;;;;4190802;28;20044;-35
2022/03/28 08:21:59;;;;;;;2.30;1.00;;;;;;;;;;4191374;28;20341;-35
2022/03/28 08:24:00;;;;;;;4.05;1.25;;;;;;;;;;4194150;28;20135;-34
2022/03/28 08:26:01;;;;;;;1.98;1.30;;;;;;;;;;4191829;28;20464;-34
2022/03/28 08:28:02;;;;;;;3.25;0.80;;;;;;;;;;4190778;28;20137;-34
2022/03/28 08:30:04;;;;;;;2.08;1.10;;;;;;;;;;4190335;28;20125;-34
2022/03/28 08:32:05;;;;;;;2.15;0.93;;;;;;;;;;4182226;28;20250;-35
2022/03/28 08:34:08;;;;;;;2.33;0.90;;;;;;;;;;4185123;28;20052;-35
2022/03/28 08:36:09;;;;;;;2.38;1.20;;;;;;;;;;4183183;28;20858;-34
2022/03/28 08:38:10;;;;;;;1.02;0.93;;;;;;;;;;4186662;28;20056;-35
2022/03/28 08:40:12;;;;;;;1.00;0.80;;;;;;;;;;4181108;28;20048;-35
2022/03/28 08:42:14;;;;;;;2.35;0.93;;;;;;;;;;4182155;28;20157;-34
2022/03/28 08:44:17;;;;;;;2.92;0.95;;;;;;;;;;4186587;28;20109;-35
2022/03/28 08:46:19;;;;;;;1.65;1.23;;;;;;;;;;4184934;28;20400;-34
2022/03/28 08:48:20;;;;;;;2.15;1.10;;;;;;;;;;4192150;28;20051;-34
2022/03/28 08:50:21;;;;;;;1.27;0.90;;;;;;;;;;4178874;28;20056;-35
2022/03/28 08:52:24;;;;;;;1.73;1.15;;;;;;;;;;4176594;28;20498;-34
2022/03/28 08:54:25;;;;;;;1.50;0.95;;;;;;;;;;4180698;28;20052;-34
2022/03/28 08:56:26;;;;;;;2.80;1.17;;;;;;;;;;4187979;28;20051;-34
2022/03/28 08:58:27;;;;;;;1.20;1.02;;;;;;;;;;4186234;28;20052;-34
2022/03/28 09:00:28;;;;;;;2.33;1.05;;;;;;;;;;4181635;28;20682;-34
2022/03/28 09:02:39;;;;;;;3.08;1.10;;;;;;;;;;4187969;28;20142;-34
2022/03/28 09:04:46;;;;;;;3.03;0.90;;;;;;;;;;4187845;28;20061;-34
2022/03/28 09:06:47;;;;;;;1.90;1.00;;;;;;;;;;4186859;28;20446;-34
2022/03/28 09:08:48;;;;;;;3.17;1.25;;;;;;;;;;4185605;28;20051;-34
2022/03/28 09:10:49;;;;;;;2.00;1.17;;;;;;;;;;4185692;28;20572;-34
2022/03/28 09:13:00;;;;;;;3.53;1.00;;;;;;;;;;4184353;28;20067;-34
2022/03/28 09:15:02;;;;;;;2.03;1.25;;;;;;;;;;4187014;28;20767;-34
2022/03/28 09:17:08;;;;;;;3.20;1.00;;;;;;;;;;4187646;28;20134;-34
2022/03/28 09:19:10;;;;;;;2.20;1.10;;;;;;;;;;4183727;28;20048;-34
2022/03/28 09:21:14;;;;;;;3.95;1.02;;;;;;;;;;4188974;28;20381;-34
2022/03/28 09:23:33;;;;;;;1.60;1.10;;;;;;;;;;4185373;28;20113;-34
2022/03/28 09:25:49;;;;;;;2.38;1.23;;;;;;;;;;4187458;28;20529;-34
2022/03/28 09:27:50;;;;;;;6.43;1.27;;;;;;;;;;4189757;28;20097;-34
2022/03/28 09:29:58;;;;;;;1.55;1.30;;;;;;;;;;4185141;28;20431;-34
2022/03/28 09:31:59;;;;;;;3.55;1.08;;;;;;;;;;4183703;28;20044;-34
2022/03/28 09:34:02;;;;;;;2.85;1.20;;;;;;;;;;4182939;28;20044;-34
2022/03/28 09:36:04;;;;;;;2.35;1.17;;;;;;;;;;4180296;28;20048;-34
2022/03/28 09:38:06;;;;;;;4.05;1.30;;;;;;;;;;4191276;28;20483;-34
2022/03/28 09:40:20;;;;;;;1.83;1.10;;;;;;;;;;4185632;28;20047;-34
2022/03/28 09:42:21;;;;;;;1.48;1.08;;;;;;;;;;4186400;28;20548;-35
2022/03/28 09:44:43;;;;;;;3.20;1.20;;;;;;;;;;4185266;28;20472;-34
2022/03/28 09:46:45;;;;;;;2.63;1.10;;;;;;;;;;4180345;28;20052;-34
2022/03/28 09:48:46;;;;;;;1.23;0.90;;;;;;;;;;4190683;28;20056;-34
2022/03/28 09:51:02;;;;;;;2.72;1.27;;;;;;;;;;4187411;28;20053;-34
2022/03/28 09:53:10;;;;;;;1.98;0.90;;;;;;;;;;4187594;28;20078;-34
2022/03/28 09:55:12;;;;;;;2.70;1.15;;;;;;;;;;4188520;28;20845;-35
2022/03/28 09:57:13;;;;;;;0.93;0.88;;;;;;;;;;4185797;28;20057;-35
2022/03/28 09:59:20;;;;;;;1.00;0.90;;;;;;;;;;4184355;28;20400;-35
2022/03/28 10:01:22;;;;;;;1.65;1.08;;;;;;;;;;4183514;28;20114;-35
2022/03/28 10:03:23;;;;;;;4.30;1.13;;;;;;;;;;4176423;28;20052;-35
2022/03/28 10:05:24;;;;;;;3.38;1.10;;;;;;;;;;4184140;28;20087;-36
2022/03/28 10:07:25;;;;;;;3.45;1.20;;;;;;;;;;4188925;28;20059;-36
2022/03/28 10:09:26;;;;;;;3.20;1.00;;;;;;;;;;4187354;28;20439;-35
2022/03/28 10:11:28;;;;;;;1.98;1.20;;;;;;;;;;4186238;28;20713;-35
2022/03/28 10:13:30;;;;;;;1.65;0.80;;;;;;;;;;4186613;28;20114;-36
2022/03/28 10:15:31;;;;;;;2.67;1.20;;;;;;;;;;4185778;28;20054;-36
2022/03/28 10:17:32;;;;;;;6.28;1.10;;;;;;;;;;4176419;28;20056;-36
2022/03/28 10:19:34;;;;;;;2.75;0.98;;;;;;;;;;4188913;28;20043;-36
2022/03/28 10:21:36;;;;;;;3.03;0.85;;;;;;;;;;4191062;28;20117;-35
2022/03/28 10:23:57;;;;;;;2.00;1.17;;;;;;;;;;4187705;28;20044;-35
2022/03/28 10:25:58;;;;;;;4.03;1.33;;;;;;;;;;4190489;28;20048;-36
2022/03/28 10:27:59;;;;;;;1.15;1.00;;;;;;;;;;4192739;28;20529;-34
2022/03/28 10:30:30;;;;;;;3.42;1.02;;;;;;;;;;4189443;28;20102;-34
2022/03/28 10:32:31;;;;;;;3.53;0.73;;;;;;;;;;4191832;28;20078;-33
2022/03/28 10:34:41;;;;;;;9.90;1.52;;;;;;;;;;4180855;28;20142;-34
2022/03/28 10:36:44;;;;;;;2.30;1.00;;;;;;;;;;4191617;28;20515;-34
2022/03/28 10:38:45;;;;;;;4.00;1.10;;;;;;;;;;4188239;28;20097;-34
2022/03/28 10:40:53;;;;;;;2.78;1.05;;;;;;;;;;4184601;28;20633;-34
2022/03/28 10:43:14;;;;;;;2.83;1.33;;;;;;;;;;4187621;28;20065;-34
2022/03/28 10:45:19;;;;;;;1.70;1.08;;;;;;;;;;4182634;28;21173;-33
2022/03/28 10:47:38;;;;;;;1.58;1.15;;;;;;;;;;4185558;28;20044;-33
2022/03/28 10:49:43;;;;;;;2.30;0.85;;;;;;;;;;4184364;28;21272;-34
2022/03/28 10:51:47;;;;;;;1.92;0.93;;;;;;;;;;4187868;28;20121;-38
2022/03/28 10:53:52;;;;;;;2.90;0.90;;;;;;;;;;4185777;28;20105;-34
2022/03/28 10:55:56;;;;;;;1.50;0.80;;;;;;;;;;4188918;28;20182;-34
2022/03/28 10:58:27;;;;;;;1.77;0.73;;;;;;;;;;4177482;28;20059;-35
2022/03/28 11:00:28;;;;;;;2.03;0.85;;;;;;;;;;4173896;28;20098;-33
2022/03/28 11:02:29;;;;;;;0.70;0.70;;;;;;;;;;4186677;28;21208;-35
2022/03/28 11:04:45;;;;;;;3.03;0.88;;;;;;;;;;4181389;28;20056;-35
2022/03/28 11:06:50;;;;;;;4.00;0.95;;;;;;;;;;4190344;28;20059;-35
2022/03/28 11:08:58;;;;;;;3.08;0.77;;;;;;;;;;4182575;28;20098;-36
2022/03/28 11:11:17;;;;;;;0.93;0.75;;;;;;;;;;4181346;28;22231;-33
2022/03/28 11:13:18;;;;;;;0.80;0.60;;;;;;;;;;4185127;28;20803;-35
2022/03/28 11:15:24;;;;;;;1.85;0.68;;;;;;;;;;4185410;28;20079;-35
2022/03/28 11:17:28;;;;;;;1.42;0.98;;;;;;;;;;4184175;28;20534;-35
2022/03/28 11:19:29;;;;;;;4.85;0.70;;;;;;;;;;4183866;28;20060;-36
2022/03/28 11:21:30;;;;;;;3.38;0.60;;;;;;;;;;4189713;28;20051;-35
2022/03/28 11:23:37;;;;;;;0.75;0.57;;;;;;;;;;4188652;28;20419;-35
2022/03/28 11:25:41;;;;;;;1.15;0.60;;;;;;;;;;4187080;28;20055;-35
2022/03/28 11:27:42;;;;;;;2.28;0.65;;;;;;;;;;4184740;28;20059;-35
2022/03/28 11:29:44;;;;;;;0.75;0.60;;;;;;;;;;4188289;28;20483;-35
2022/03/28 11:31:45;;;;;;;2.30;0.40;;;;;;;;;;4190304;28;20101;-35
2022/03/28 11:33:47;;;;;;;2.92;0.50;;;;;;;;;;4186516;28;20048;-35
2022/03/28 11:35:55;;;;;;;0.63;0.47;;;;;;;;;;4187458;28;20052;-35
2022/03/28 11:37:57;;;;;;;0.77;0.32;;;;;;;;;;4184108;28;20566;-35
2022/03/28 11:40:07;;;;;;;1.15;0.40;;;;;;;;;;4185770;28;20401;-35
2022/03/28 11:42:08;;;;;;;2.92;0.75;;;;;;;;;;4185142;28;20492;-35
2022/03/28 11:44:10;;;;;;;3.10;0.50;;;;;;;;;;4187143;28;20647;-35
2022/03/28 11:46:17;;;;;;;1.40;0.63;;;;;;;;;;4193432;28;20047;-35
2022/03/28 11:48:19;;;;;;;1.08;0.28;;;;;;;;;;4188424;28;21988;-35
2022/03/28 11:50:20;;;;;;;0.73;0.20;;;;;;;;;;4185480;28;20886;-35
2022/03/28 11:52:22;;;;;;;0.75;0.30;;;;;;;;;;4187889;28;20521;-35
2022/03/28 11:54:28;;;;;;;1.15;0.43;;;;;;;;;;4190055;28;20359;-35
2022/03/28 11:56:30;;;;;;;0.75;0.30;;;;;;;;;;4189647;28;20496;-35
2022/03/28 11:58:32;;;;;;;2.38;0.45;;;;;;;;;;4186156;28;20114;-35
2022/03/28 12:00:33;;;;;;;0.45;0.20;;;;;;;;;;4186780;28;20052;-35
2022/03/28 12:02:44;;;;;;;2.35;0.50;;;;;;;;;;4188859;28;20113;-35
2022/03/28 12:04:46;;;;;;;3.45;0.35;;;;;;;;;;4190048;28;20074;-35
2022/03/28 12:06:47;;;;;;;2.30;0.35;;;;;;;;;;4195841;28;21570;-35
2022/03/28 12:08:50;;;;;;;1.55;0.30;;;;;;;;;;4191662;28;20056;-35
2022/03/28 12:10:52;;;;;;;0.52;0.32;;;;;;;;;;4185660;28;20056;-35
2022/03/28 12:12:55;;;;;;;2.47;0.50;;;;;;;;;;4194302;28;20048;-35
2022/03/28 12:14:56;;;;;;;0.52;0.20;;;;;;;;;;4192407;28;20113;-35
2022/03/28 12:16:57;;;;;;;2.17;0.30;;;;;;;;;;4192285;28;20043;-35